createdAt,value
2017-03-17T00:00:57.306Z,30.6
2017-03-17T00:01:57.500Z,30.6
2017-03-17T00:02:59.100Z,30.6
2017-03-17T00:03:59.104Z,30.6
2017-03-17T00:04:57.736Z,30.6
2017-03-17T00:05:59.181Z,30.6
2017-03-17T00:06:59.270Z,30.6
2017-03-17T00:07:57.679Z,30.6
2017-03-17T00:08:57.750Z,30.6
2017-03-17T00:09:57.820Z,30.6
2017-03-17T00:10:57.954Z,30.6
2017-03-17T00:11:59.487Z,30.6
2017-03-17T00:12:59.587Z,30.6
2017-03-17T00:13:59.652Z,30.6
2017-03-17T00:14:59.815Z,30.6
2017-03-17T00:15:58.309Z,30.6
2017-03-17T00:16:59.960Z,30.6
2017-03-17T00:17:59.920Z,30.6
2017-03-17T00:19:00.036Z,30.6
2017-03-17T00:19:59.948Z,30.6
2017-03-17T00:20:59.992Z,30.5
2017-03-17T00:22:00.005Z,30.6
2017-03-17T00:22:58.662Z,30.6
2017-03-17T00:23:58.534Z,30.6
2017-03-17T00:25:00.203Z,30.6
2017-03-17T00:25:58.722Z,30.6
2017-03-17T00:26:58.610Z,30.6
2017-03-17T00:28:00.388Z,30.5
2017-03-17T00:28:58.980Z,30.6
2017-03-17T00:29:58.898Z,30.6
2017-03-17T00:30:58.775Z,30.6
2017-03-17T00:32:00.523Z,30.6
2017-03-17T00:33:00.580Z,30.6
2017-03-17T00:34:00.556Z,30.6
2017-03-17T00:35:00.715Z,30.5
2017-03-17T00:36:00.695Z,30.6
2017-03-17T00:36:59.003Z,30.6
2017-03-17T00:38:00.784Z,30.5
2017-03-17T00:38:59.129Z,30.6
2017-03-17T00:39:59.245Z,30.6
2017-03-17T00:40:59.296Z,30.5
2017-03-17T00:42:00.741Z,30.6
2017-03-17T00:43:00.836Z,30.6
2017-03-17T00:44:01.049Z,30.6
2017-03-17T00:45:01.097Z,30.5
2017-03-17T00:46:01.108Z,30.5
2017-03-17T00:47:01.294Z,30.5
2017-03-17T00:48:01.191Z,30.5
2017-03-17T00:48:59.753Z,30.5
2017-03-17T00:50:01.282Z,30.5
2017-03-17T00:50:59.766Z,30.5
2017-03-17T00:51:59.842Z,30.5
2017-03-17T00:53:01.786Z,30.5
2017-03-17T00:54:00.131Z,30.5
2017-03-17T00:55:01.668Z,30.5
2017-03-17T00:56:01.683Z,30.5
2017-03-17T00:57:01.738Z,30.5
2017-03-17T00:58:01.848Z,30.5
2017-03-17T00:59:00.421Z,30.5
2017-03-17T01:00:01.915Z,30.5
2017-03-17T01:01:00.386Z,30.5
2017-03-17T01:02:02.063Z,30.5
2017-03-17T01:03:02.189Z,30.5
2017-03-17T01:04:00.500Z,30.5
2017-03-17T01:05:00.821Z,30.5
2017-03-17T01:06:02.112Z,30.5
2017-03-17T01:07:00.599Z,30.5
2017-03-17T01:08:02.369Z,30.5
2017-03-17T01:09:02.296Z,30.5
2017-03-17T01:10:02.434Z,30.5
2017-03-17T01:11:02.774Z,30.5
2017-03-17T01:12:02.446Z,30.5
2017-03-17T01:13:01.055Z,30.5
2017-03-17T01:14:02.661Z,30.5
2017-03-17T01:15:02.680Z,30.5
2017-03-17T01:16:01.004Z,30.5
2017-03-17T01:17:01.369Z,30.5
2017-03-17T01:18:01.347Z,30.5
2017-03-17T01:19:01.952Z,30.5
2017-03-17T01:20:01.376Z,30.5
2017-03-17T01:21:02.985Z,30.5
2017-03-17T01:22:03.209Z,30.5
2017-03-17T01:23:03.024Z,30.5
2017-03-17T01:24:01.652Z,30.5
2017-03-17T01:25:03.224Z,30.5
2017-03-17T01:26:01.713Z,30.5
2017-03-17T01:27:01.629Z,30.5
2017-03-17T01:28:03.578Z,30.5
2017-03-17T01:29:03.442Z,30.5
2017-03-17T01:30:01.901Z,30.5
2017-03-17T01:31:03.434Z,30.5
2017-03-17T01:32:03.509Z,30.5
2017-03-17T01:33:02.024Z,30.5
2017-03-17T01:34:02.347Z,30.5
2017-03-17T01:35:03.845Z,30.5
2017-03-17T01:36:02.273Z,30.5
2017-03-17T01:37:02.214Z,30.5
2017-03-17T01:38:03.871Z,30.5
2017-03-17T01:39:02.247Z,30.5
2017-03-17T01:40:02.558Z,30.5
2017-03-17T01:41:03.870Z,30.5
2017-03-17T01:42:02.299Z,30.5
2017-03-17T01:43:02.427Z,30.5
2017-03-17T01:44:04.075Z,30.5
2017-03-17T01:45:02.540Z,30.5
2017-03-17T01:46:04.171Z,30.5
2017-03-17T01:47:02.604Z,30.5
2017-03-17T01:48:02.632Z,30.5
2017-03-17T01:49:04.162Z,30.5
2017-03-17T01:50:04.293Z,30.5
2017-03-17T01:51:04.197Z,30.5
2017-03-17T01:52:04.550Z,30.5
2017-03-17T01:53:02.701Z,30.5
2017-03-17T01:54:02.891Z,30.5
2017-03-17T01:55:02.854Z,30.5
2017-03-17T01:56:02.937Z,30.5
2017-03-17T01:57:04.476Z,30.5
2017-03-17T01:58:03.251Z,30.5
2017-03-17T01:59:04.580Z,30.5
2017-03-17T02:00:03.051Z,30.5
2017-03-17T02:01:04.752Z,30.5
2017-03-17T02:02:03.071Z,30.5
2017-03-17T02:03:04.803Z,30.5
2017-03-17T02:04:03.324Z,30.5
2017-03-17T02:05:04.976Z,30.5
2017-03-17T02:06:03.385Z,30.5
2017-03-17T02:07:04.067Z,30.5
2017-03-17T02:08:03.622Z,30.5
2017-03-17T02:09:05.280Z,30.5
2017-03-17T02:10:03.862Z,30.5
2017-03-17T02:11:05.179Z,30.4
2017-03-17T02:12:03.691Z,30.5
2017-03-17T02:13:03.774Z,30.5
2017-03-17T02:14:05.527Z,30.5
2017-03-17T02:15:03.783Z,30.5
2017-03-17T02:16:05.577Z,30.4
2017-03-17T02:17:05.590Z,30.5
2017-03-17T02:18:04.044Z,30.5
2017-03-17T02:19:04.181Z,30.5
2017-03-17T02:20:05.720Z,30.5
2017-03-17T02:21:04.110Z,30.5
2017-03-17T02:22:04.534Z,30.5
2017-03-17T02:23:05.804Z,30.4
2017-03-17T02:24:04.212Z,30.5
2017-03-17T02:25:05.036Z,30.4
2017-03-17T02:26:05.987Z,30.4
2017-03-17T02:27:04.412Z,30.4
2017-03-17T02:28:04.784Z,30.4
2017-03-17T02:29:04.538Z,30.4
2017-03-17T02:30:04.632Z,30.4
2017-03-17T02:31:04.825Z,30.4
2017-03-17T02:32:04.809Z,30.4
2017-03-17T02:33:04.891Z,30.4
2017-03-17T02:34:05.089Z,30.4
2017-03-17T02:35:06.652Z,30.4
2017-03-17T02:36:06.659Z,30.4
2017-03-17T02:37:06.714Z,30.4
2017-03-17T02:38:05.344Z,30.4
2017-03-17T02:39:06.810Z,30.4
2017-03-17T02:40:05.984Z,30.4
2017-03-17T02:41:07.052Z,30.4
2017-03-17T02:42:06.960Z,30.4
2017-03-17T02:43:05.410Z,30.4
2017-03-17T02:44:05.601Z,30.4
2017-03-17T02:45:07.150Z,30.4
2017-03-17T02:46:07.403Z,30.4
2017-03-17T02:47:07.279Z,30.4
2017-03-17T02:48:07.251Z,30.4
2017-03-17T02:49:05.775Z,30.4
2017-03-17T02:50:05.723Z,30.4
2017-03-17T02:51:07.353Z,30.4
2017-03-17T02:52:06.054Z,30.4
2017-03-17T02:53:07.693Z,30.4
2017-03-17T02:54:05.996Z,30.4
2017-03-17T02:55:07.708Z,30.4
2017-03-17T02:56:07.772Z,30.4
2017-03-17T02:57:07.690Z,30.4
2017-03-17T02:58:07.865Z,30.4
2017-03-17T02:59:07.785Z,30.4
2017-03-17T03:00:06.422Z,30.4
2017-03-17T03:01:07.950Z,30.4
2017-03-17T03:02:07.985Z,30.4
2017-03-17T03:03:08.053Z,30.4
2017-03-17T03:04:08.120Z,30.4
2017-03-17T03:05:08.164Z,30.4
2017-03-17T03:06:08.160Z,30.4
2017-03-17T03:07:06.599Z,30.4
2017-03-17T03:08:08.248Z,30.4
2017-03-17T03:09:08.306Z,30.4
2017-03-17T03:10:06.722Z,30.4
2017-03-17T03:11:06.796Z,30.4
2017-03-17T03:12:07.021Z,30.4
2017-03-17T03:13:07.094Z,30.4
2017-03-17T03:14:07.205Z,30.4
2017-03-17T03:15:07.041Z,30.4
2017-03-17T03:16:08.841Z,30.4
2017-03-17T03:17:07.321Z,30.4
2017-03-17T03:18:07.270Z,30.4
2017-03-17T03:19:07.908Z,30.4
2017-03-17T03:20:09.068Z,30.4
2017-03-17T03:21:09.250Z,30.3
2017-03-17T03:22:09.181Z,30.4
2017-03-17T03:24:09.032Z,30.4
2017-03-17T03:25:09.142Z,30.4
2017-03-17T03:26:07.605Z,30.4
2017-03-17T03:27:07.793Z,30.4
2017-03-17T03:28:07.841Z,30.4
2017-03-17T03:29:08.528Z,30.4
2017-03-17T03:30:07.750Z,30.4
2017-03-17T03:31:09.574Z,30.4
2017-03-17T03:32:08.021Z,30.4
2017-03-17T03:33:09.751Z,30.3
2017-03-17T03:34:09.694Z,30.4
2017-03-17T03:35:08.695Z,30.3
2017-03-17T03:36:09.551Z,30.3
2017-03-17T03:37:09.778Z,30.3
2017-03-17T03:38:09.722Z,30.3
2017-03-17T03:39:09.909Z,30.3
2017-03-17T03:40:09.825Z,30.3
2017-03-17T03:41:09.711Z,30.3
2017-03-17T03:42:08.212Z,30.3
2017-03-17T03:43:08.384Z,30.3
2017-03-17T03:44:09.871Z,30.3
2017-03-17T03:45:08.591Z,30.3
2017-03-17T03:46:10.499Z,30.3
2017-03-17T03:47:10.027Z,30.3
2017-03-17T03:48:08.578Z,30.3
2017-03-17T03:49:09.092Z,30.3
2017-03-17T03:50:09.313Z,30.3
2017-03-17T03:51:10.209Z,30.3
2017-03-17T03:52:08.515Z,30.3
2017-03-17T03:53:10.254Z,30.3
2017-03-17T03:54:08.694Z,30.3
2017-03-17T03:55:10.441Z,30.3
2017-03-17T03:56:10.375Z,30.3
2017-03-17T03:57:09.182Z,30.3
2017-03-17T03:58:10.655Z,30.3
2017-03-17T03:59:09.038Z,30.3
2017-03-17T04:00:09.049Z,30.3
2017-03-17T04:01:08.858Z,30.3
2017-03-17T04:02:10.589Z,30.3
2017-03-17T04:03:10.852Z,30.3
2017-03-17T04:04:10.756Z,30.3
2017-03-17T04:05:09.277Z,30.3
2017-03-17T04:06:09.323Z,30.3
2017-03-17T04:07:09.503Z,30.3
2017-03-17T04:08:11.021Z,30.3
2017-03-17T04:09:09.478Z,30.3
2017-03-17T04:10:09.472Z,30.3
2017-03-17T04:11:09.500Z,30.3
2017-03-17T04:12:09.567Z,30.3
2017-03-17T04:13:11.341Z,30.3
2017-03-17T04:14:11.409Z,30.3
2017-03-17T04:15:09.845Z,30.3
2017-03-17T04:16:09.901Z,30.3
2017-03-17T04:17:11.511Z,30.3
2017-03-17T04:18:09.927Z,30.3
2017-03-17T04:19:11.629Z,30.3
2017-03-17T04:20:10.109Z,30.3
2017-03-17T04:21:10.030Z,30.3
2017-03-17T04:22:11.803Z,30.3
2017-03-17T04:23:10.254Z,30.3
2017-03-17T04:24:10.325Z,30.3
2017-03-17T04:25:11.874Z,30.3
2017-03-17T04:26:12.103Z,30.3
2017-03-17T04:27:11.990Z,30.3
2017-03-17T04:28:10.667Z,30.3
2017-03-17T04:29:12.138Z,30.3
2017-03-17T04:30:12.243Z,30.3
2017-03-17T04:31:12.152Z,30.3
2017-03-17T04:32:12.295Z,30.3
2017-03-17T04:33:10.732Z,30.3
2017-03-17T04:34:10.713Z,30.3
2017-03-17T04:35:10.821Z,30.3
2017-03-17T04:36:12.441Z,30.3
2017-03-17T04:37:10.773Z,30.3
2017-03-17T04:38:11.180Z,30.3
2017-03-17T04:39:12.603Z,30.3
2017-03-17T04:40:12.595Z,30.3
2017-03-17T04:41:11.028Z,30.3
2017-03-17T04:42:11.074Z,30.3
2017-03-17T04:43:12.760Z,30.3
2017-03-17T04:44:12.960Z,30.3
2017-03-17T04:45:12.977Z,30.4
2017-03-17T04:46:12.987Z,30.4
2017-03-17T04:47:12.873Z,30.4
2017-03-17T04:48:12.992Z,30.4
2017-03-17T04:49:13.114Z,30.4
2017-03-17T04:50:13.208Z,30.3
2017-03-17T04:51:13.060Z,30.3
2017-03-17T04:52:13.185Z,30.3
2017-03-17T04:53:11.708Z,30.3
2017-03-17T04:54:13.203Z,30.3
2017-03-17T04:55:13.357Z,30.3
2017-03-17T04:56:13.575Z,30.3
2017-03-17T04:57:11.918Z,30.3
2017-03-17T04:58:11.921Z,30.3
2017-03-17T04:59:11.980Z,30.3
2017-03-17T05:00:13.542Z,30.3
2017-03-17T05:01:13.611Z,30.3
2017-03-17T05:02:12.264Z,30.3
2017-03-17T05:03:13.689Z,30.3
2017-03-17T05:04:13.827Z,30.3
2017-03-17T05:05:13.727Z,30.3
2017-03-17T05:06:13.822Z,30.3
2017-03-17T05:07:12.562Z,30.3
2017-03-17T05:08:13.163Z,30.3
2017-03-17T05:09:12.535Z,30.3
2017-03-17T05:10:12.544Z,30.3
2017-03-17T05:11:14.140Z,30.3
2017-03-17T05:12:14.227Z,30.3
2017-03-17T05:13:14.430Z,30.3
2017-03-17T05:14:14.256Z,30.3
2017-03-17T05:15:14.424Z,30.3
2017-03-17T05:16:15.009Z,30.3
2017-03-17T05:17:15.142Z,30.3
2017-03-17T05:18:12.962Z,30.3
2017-03-17T05:19:14.721Z,30.3
2017-03-17T05:20:14.580Z,30.3
2017-03-17T05:21:14.585Z,30.3
2017-03-17T05:22:14.509Z,30.3
2017-03-17T05:23:14.632Z,30.3
2017-03-17T05:24:14.779Z,30.2
2017-03-17T05:25:15.051Z,30.2
2017-03-17T05:26:13.284Z,30.2
2017-03-17T05:27:14.827Z,30.2
2017-03-17T05:28:15.057Z,30.2
2017-03-17T05:29:16.380Z,30.2
2017-03-17T05:30:13.642Z,30.2
2017-03-17T05:31:15.333Z,30.2
2017-03-17T05:32:15.324Z,30.2
2017-03-17T05:33:15.410Z,30.2
2017-03-17T05:34:13.910Z,30.2
2017-03-17T05:35:15.498Z,30.2
2017-03-17T05:36:15.575Z,30.2
2017-03-17T05:37:14.226Z,30.1
2017-03-17T05:38:15.754Z,30
2017-03-17T05:39:14.087Z,30
2017-03-17T05:40:14.272Z,29.9
2017-03-17T05:41:14.356Z,29.8
2017-03-17T05:42:14.253Z,29.7
2017-03-17T05:43:16.320Z,29.6
2017-03-17T05:44:14.310Z,29.5
2017-03-17T05:45:16.117Z,29.5
2017-03-17T05:46:14.978Z,29.4
2017-03-17T05:47:15.102Z,29.3
2017-03-17T05:48:14.431Z,29.3
2017-03-17T05:49:16.247Z,29.3
2017-03-17T05:50:16.777Z,29.2
2017-03-17T05:51:15.257Z,29.4
2017-03-17T05:52:16.237Z,29.4
2017-03-17T05:53:14.825Z,29.5
2017-03-17T05:54:16.409Z,29.5
2017-03-17T05:55:16.642Z,29.6
2017-03-17T05:56:16.429Z,29.7
2017-03-17T05:57:15.018Z,29.8
2017-03-17T05:58:16.719Z,29.8
2017-03-17T05:59:15.162Z,29.9
2017-03-17T06:00:15.166Z,29.9
2017-03-17T06:01:17.069Z,30
2017-03-17T06:02:17.895Z,30
2017-03-17T06:03:16.871Z,30.1
2017-03-17T06:04:17.616Z,30.1
2017-03-17T06:05:15.878Z,30.2
2017-03-17T06:06:16.994Z,30.2
2017-03-17T06:07:15.574Z,30.3
2017-03-17T06:08:17.144Z,30.3
2017-03-17T06:09:15.711Z,30.3
2017-03-17T06:10:15.805Z,30.4
2017-03-17T06:11:15.759Z,30.4
2017-03-17T06:12:15.743Z,30.4
2017-03-17T06:13:17.553Z,30.5
2017-03-17T06:14:17.470Z,30.5
2017-03-17T06:15:17.461Z,30.5
2017-03-17T06:16:18.230Z,30.5
2017-03-17T06:17:16.009Z,30.6
2017-03-17T06:18:17.693Z,30.6
2017-03-17T06:19:17.878Z,30.6
2017-03-17T06:20:17.636Z,30.6
2017-03-17T06:21:17.768Z,30.7
2017-03-17T06:22:16.131Z,30.7
2017-03-17T06:23:18.501Z,30.7
2017-03-17T06:24:16.375Z,30.8
2017-03-17T06:25:18.123Z,30.8
2017-03-17T06:26:16.966Z,30.8
2017-03-17T06:27:18.026Z,30.8
2017-03-17T06:28:16.570Z,30.9
2017-03-17T06:29:18.103Z,30.9
2017-03-17T06:30:18.274Z,30.9
2017-03-17T06:31:16.896Z,30.9
2017-03-17T06:32:16.637Z,31
2017-03-17T06:33:18.474Z,31
2017-03-17T06:34:18.516Z,31
2017-03-17T06:35:18.518Z,31
2017-03-17T06:36:17.033Z,31
2017-03-17T06:37:18.875Z,31
2017-03-17T06:38:18.794Z,31.1
2017-03-17T06:39:17.179Z,31.1
2017-03-17T06:40:17.158Z,31.1
2017-03-17T06:41:17.336Z,31.1
2017-03-17T06:42:18.936Z,31.2
2017-03-17T06:43:19.007Z,31.1
2017-03-17T06:44:18.950Z,31.1
2017-03-17T06:45:17.348Z,31.2
2017-03-17T06:46:19.032Z,31.2
2017-03-17T06:47:20.997Z,31.1
2017-03-17T06:48:17.837Z,31.2
2017-03-17T06:49:19.907Z,31.2
2017-03-17T06:50:19.316Z,31.2
2017-03-17T06:51:19.326Z,31.3
2017-03-17T06:52:19.297Z,31.3
2017-03-17T06:53:17.729Z,31.4
2017-03-17T06:54:19.421Z,31.3
2017-03-17T06:55:17.840Z,31.4
2017-03-17T06:56:19.503Z,31.4
2017-03-17T06:57:19.569Z,31.4
2017-03-17T06:58:19.532Z,31.5
2017-03-17T06:59:19.665Z,31.4
2017-03-17T07:00:18.039Z,31.3
2017-03-17T07:01:19.749Z,31.3
2017-03-17T07:02:19.695Z,31.3
2017-03-17T07:03:18.161Z,31.3
2017-03-17T07:04:18.287Z,31.2
2017-03-17T07:05:19.022Z,31.2
2017-03-17T07:06:18.230Z,31.2
2017-03-17T07:07:19.891Z,31.2
2017-03-17T07:08:18.366Z,31.2
2017-03-17T07:09:19.070Z,31.1
2017-03-17T07:10:18.557Z,31.1
2017-03-17T07:11:20.233Z,31.1
2017-03-17T07:12:19.802Z,31.1
2017-03-17T07:13:21.300Z,31.1
2017-03-17T07:14:20.401Z,31.1
2017-03-17T07:15:19.330Z,31.1
2017-03-17T07:16:18.759Z,31.1
2017-03-17T07:17:20.946Z,31.1
2017-03-17T07:18:19.561Z,31.1
2017-03-17T07:19:20.471Z,31.1
2017-03-17T07:20:21.063Z,31.1
2017-03-17T07:21:21.246Z,31.1
2017-03-17T07:22:21.151Z,31.1
2017-03-17T07:23:19.879Z,31
2017-03-17T07:24:20.840Z,31.1
2017-03-17T07:25:19.298Z,31.1
2017-03-17T07:26:19.228Z,31.1
2017-03-17T07:27:19.458Z,31.1
2017-03-17T07:28:19.958Z,31.1
2017-03-17T07:29:20.711Z,31.1
2017-03-17T07:30:21.814Z,31.1
2017-03-17T07:31:23.708Z,31.1
2017-03-17T07:32:20.690Z,31
2017-03-17T07:33:19.758Z,31
2017-03-17T07:34:21.065Z,31
2017-03-17T07:35:22.127Z,31
2017-03-17T07:36:22.038Z,31
2017-03-17T07:37:21.479Z,31
2017-03-17T07:38:21.511Z,31
2017-03-17T07:39:21.549Z,31
2017-03-17T07:40:24.431Z,31
2017-03-17T07:41:21.299Z,31
2017-03-17T07:42:20.168Z,31
2017-03-17T07:43:20.255Z,31
2017-03-17T07:44:20.885Z,31
2017-03-17T07:45:21.517Z,31
2017-03-17T07:46:21.796Z,31
2017-03-17T07:47:20.297Z,31
2017-03-17T07:48:20.955Z,31
2017-03-17T07:49:23.528Z,31
2017-03-17T07:50:20.502Z,31
2017-03-17T07:51:22.829Z,31
2017-03-17T07:52:22.157Z,31
2017-03-17T07:53:23.665Z,31
2017-03-17T07:54:23.637Z,31
2017-03-17T07:55:21.910Z,31
2017-03-17T07:56:21.958Z,31
2017-03-17T07:57:22.361Z,31
2017-03-17T07:58:23.784Z,31
2017-03-17T07:59:21.579Z,31
2017-03-17T08:00:23.184Z,31
2017-03-17T08:01:22.626Z,31
2017-03-17T08:02:21.088Z,31
2017-03-17T08:03:22.830Z,31
2017-03-17T08:04:21.694Z,31
2017-03-17T08:05:21.776Z,31
2017-03-17T08:06:21.155Z,31
2017-03-17T08:07:22.724Z,31
2017-03-17T08:08:21.252Z,31
2017-03-17T08:09:22.731Z,31
2017-03-17T08:10:23.090Z,31
2017-03-17T08:11:21.474Z,31
2017-03-17T08:12:23.726Z,31
2017-03-17T08:13:23.271Z,31
2017-03-17T08:14:23.072Z,31
2017-03-17T08:15:22.182Z,31
2017-03-17T08:16:23.542Z,31
2017-03-17T08:17:23.177Z,31
2017-03-17T08:18:22.368Z,31
2017-03-17T08:19:24.112Z,31
2017-03-17T08:20:24.627Z,31
2017-03-17T08:21:22.563Z,31
2017-03-17T08:22:23.098Z,31
2017-03-17T08:23:24.870Z,31
2017-03-17T08:24:22.261Z,31
2017-03-17T08:25:23.583Z,31
2017-03-17T08:26:26.413Z,31
2017-03-17T08:27:22.938Z,31
2017-03-17T08:28:25.978Z,31
2017-03-17T08:29:27.063Z,31.1
2017-03-17T08:30:26.349Z,31.1
2017-03-17T08:31:24.468Z,31.1
2017-03-17T08:32:26.747Z,31.1
2017-03-17T08:33:27.050Z,31.1
2017-03-17T08:34:29.829Z,31.1
2017-03-17T08:35:27.826Z,31.1
2017-03-17T08:36:28.071Z,31.1
2017-03-17T08:37:26.725Z,31.1
2017-03-17T08:38:29.831Z,31
2017-03-17T08:39:27.115Z,31
2017-03-17T08:40:29.076Z,31
2017-03-17T08:41:26.265Z,31
2017-03-17T08:42:27.152Z,31
2017-03-17T08:43:23.415Z,31
2017-03-17T08:44:28.133Z,31
2017-03-17T08:45:25.965Z,31
2017-03-17T08:46:28.433Z,31
2017-03-17T08:47:26.768Z,31
2017-03-17T08:48:28.188Z,30.9
2017-03-17T08:49:29.711Z,31
2017-03-17T08:50:27.519Z,31
2017-03-17T08:51:25.581Z,30.9
2017-03-17T08:52:24.168Z,30.9
2017-03-17T08:53:24.895Z,30.9
2017-03-17T08:54:26.582Z,30.9
2017-03-17T08:55:24.636Z,30.9
2017-03-17T08:56:23.617Z,30.9
2017-03-17T08:57:25.858Z,30.9
2017-03-17T08:58:25.885Z,30.9
2017-03-17T08:59:26.334Z,31
2017-03-17T09:00:24.276Z,30.9
2017-03-17T09:01:23.825Z,31
2017-03-17T09:02:26.637Z,31
2017-03-17T09:03:25.412Z,31.1
2017-03-17T09:04:25.468Z,31.1
2017-03-17T09:05:24.709Z,31.2
2017-03-17T09:06:23.977Z,31.2
2017-03-17T09:07:23.991Z,31.3
2017-03-17T09:08:24.779Z,31.3
2017-03-17T09:09:25.955Z,31.4
2017-03-17T09:10:26.588Z,31.4
2017-03-17T09:11:26.519Z,31.5
2017-03-17T09:12:26.053Z,31.5
2017-03-17T09:13:25.418Z,31.5
2017-03-17T09:14:28.319Z,31.6
2017-03-17T09:15:25.455Z,31.6
2017-03-17T09:16:25.421Z,31.6
2017-03-17T09:17:31.294Z,31.6
2017-03-17T09:18:27.140Z,31.6
2017-03-17T09:19:27.250Z,31.6
2017-03-17T09:20:28.276Z,31.6
2017-03-17T09:21:28.957Z,31.7
2017-03-17T09:22:27.141Z,31.7
2017-03-17T09:23:27.820Z,31.8
2017-03-17T09:24:27.472Z,31.9
2017-03-17T09:25:29.149Z,32.1
2017-03-17T09:26:28.865Z,32.4
2017-03-17T09:27:31.034Z,32.6
2017-03-17T09:28:27.522Z,32.6
2017-03-17T09:29:28.567Z,32.6
2017-03-17T09:30:27.004Z,32.5
2017-03-17T09:31:30.673Z,32.4
2017-03-17T09:32:29.265Z,32.4
2017-03-17T09:33:35.550Z,32.3
2017-03-17T09:34:29.322Z,32.2
2017-03-17T09:35:32.222Z,32.1
2017-03-17T09:36:31.644Z,32
2017-03-17T09:37:37.488Z,32
2017-03-17T09:38:37.400Z,32
2017-03-17T09:39:34.898Z,32
2017-03-17T09:40:28.979Z,31.9
2017-03-17T09:41:29.464Z,31.9
2017-03-17T09:42:28.933Z,32
2017-03-17T09:43:33.953Z,32
2017-03-17T09:44:31.352Z,32
2017-03-17T09:45:30.434Z,31.9
2017-03-17T09:46:32.001Z,31.9
2017-03-17T09:47:33.865Z,31.9
2017-03-17T09:48:27.505Z,31.9
2017-03-17T09:49:33.577Z,31.9
2017-03-17T09:50:28.830Z,31.9
2017-03-17T09:51:31.115Z,31.9
2017-03-17T09:52:32.224Z,31.9
2017-03-17T09:53:33.968Z,31.9
2017-03-17T09:54:30.833Z,31.9
2017-03-17T09:55:33.341Z,31.9
2017-03-17T09:56:28.497Z,31.9
2017-03-17T09:57:27.469Z,31.9
2017-03-17T09:58:31.840Z,31.9
2017-03-17T09:59:28.907Z,31.9
2017-03-17T10:00:30.905Z,31.9
2017-03-17T10:01:27.021Z,31.9
2017-03-17T10:02:26.947Z,31.9
2017-03-17T10:03:27.630Z,31.9
2017-03-17T10:04:30.607Z,32
2017-03-17T10:05:29.363Z,31.9
2017-03-17T10:06:29.375Z,32
2017-03-17T10:07:30.812Z,31.9
2017-03-17T10:08:32.141Z,32
2017-03-17T10:09:33.766Z,32
2017-03-17T10:10:27.774Z,32
2017-03-17T10:11:30.883Z,32
2017-03-17T10:12:29.543Z,32
2017-03-17T10:13:30.696Z,32
2017-03-17T10:14:28.584Z,32
2017-03-17T10:15:31.016Z,32
2017-03-17T10:16:32.460Z,32.1
2017-03-17T10:17:30.989Z,32.1
2017-03-17T10:18:33.101Z,32.1
2017-03-17T10:19:30.732Z,32.1
2017-03-17T10:20:29.298Z,32.1
2017-03-17T10:21:28.573Z,32.1
2017-03-17T10:22:31.388Z,32.1
2017-03-17T10:23:30.488Z,32.1
2017-03-17T10:24:28.666Z,32
2017-03-17T10:25:29.128Z,32.1
2017-03-17T10:26:28.728Z,32.1
2017-03-17T10:27:34.026Z,32.1
2017-03-17T10:28:31.396Z,32.1
2017-03-17T10:29:32.060Z,32.2
2017-03-17T10:30:33.579Z,32.1
2017-03-17T10:31:31.257Z,32.2
2017-03-17T10:32:31.011Z,32.2
2017-03-17T10:33:31.837Z,32.2
2017-03-17T10:34:30.494Z,32.2
2017-03-17T10:35:33.239Z,32.2
2017-03-17T10:36:28.539Z,32.2
2017-03-17T10:37:31.536Z,32.2
2017-03-17T10:38:32.864Z,32.2
2017-03-17T10:39:31.349Z,32.2
2017-03-17T10:40:29.989Z,32.2
2017-03-17T10:41:30.272Z,32.2
2017-03-17T10:42:30.251Z,32.3
2017-03-17T10:43:31.850Z,32.3
2017-03-17T10:44:31.817Z,32.3
2017-03-17T10:45:31.882Z,32.3
2017-03-17T10:46:30.661Z,32.2
2017-03-17T10:47:32.552Z,32.3
2017-03-17T10:48:30.846Z,32.3
2017-03-17T10:49:30.759Z,32.3
2017-03-17T10:50:32.007Z,32.4
2017-03-17T10:51:31.614Z,32.4
2017-03-17T10:52:32.915Z,32.4
2017-03-17T10:53:33.465Z,32.4
2017-03-17T10:54:30.497Z,32.5
2017-03-17T10:55:32.925Z,32.5
2017-03-17T10:56:32.555Z,32.5
2017-03-17T10:57:31.140Z,32.5
2017-03-17T10:58:31.079Z,32.5
2017-03-17T10:59:32.830Z,32.5
2017-03-17T11:00:32.853Z,32.5
2017-03-17T11:01:32.617Z,32.5
2017-03-17T11:02:34.484Z,32.5
2017-03-17T11:03:34.628Z,32.5
2017-03-17T11:04:33.268Z,32.5
2017-03-17T11:05:31.220Z,32.5
2017-03-17T11:06:34.303Z,32.5
2017-03-17T11:07:32.102Z,32.4
2017-03-17T11:08:37.657Z,32.5
2017-03-17T11:09:35.810Z,32.5
2017-03-17T11:10:32.677Z,32.5
2017-03-17T11:11:34.068Z,32.4
2017-03-17T11:12:33.057Z,32.4
2017-03-17T11:13:31.923Z,32.4
2017-03-17T11:14:32.937Z,32.4
2017-03-17T11:15:30.635Z,32.4
2017-03-17T11:16:32.019Z,32.4
2017-03-17T11:17:34.654Z,32.4
2017-03-17T11:18:35.635Z,32.4
2017-03-17T11:19:30.847Z,32.4
2017-03-17T11:20:35.780Z,32.4
2017-03-17T11:21:33.818Z,32.4
2017-03-17T11:22:33.806Z,32.3
2017-03-17T11:23:34.801Z,32.1
2017-03-17T11:24:35.101Z,31.9
2017-03-17T11:25:35.839Z,31.7
2017-03-17T11:26:38.347Z,31.5
2017-03-17T11:27:34.465Z,31.4
2017-03-17T11:28:34.439Z,31.2
2017-03-17T11:29:34.480Z,31
2017-03-17T11:30:36.691Z,30.9
2017-03-17T11:31:35.505Z,30.8
2017-03-17T11:32:35.433Z,30.7
2017-03-17T11:33:33.741Z,30.6
2017-03-17T11:34:34.305Z,30.5
2017-03-17T11:35:34.599Z,30.5
2017-03-17T11:36:35.410Z,30.4
2017-03-17T11:37:34.236Z,30.3
2017-03-17T11:38:38.743Z,30.2
2017-03-17T11:39:39.992Z,30.1
2017-03-17T11:40:37.622Z,30
2017-03-17T11:41:36.191Z,29.9
2017-03-17T11:42:34.953Z,29.9
2017-03-17T11:43:34.104Z,29.8
2017-03-17T11:44:36.165Z,29.7
2017-03-17T11:45:34.021Z,29.6
2017-03-17T11:46:37.217Z,29.6
2017-03-17T11:47:34.967Z,29.5
2017-03-17T11:48:36.734Z,29.5
2017-03-17T11:49:36.002Z,29.4
2017-03-17T11:50:33.520Z,29.4
2017-03-17T11:51:34.110Z,29.4
2017-03-17T11:52:36.616Z,29.3
2017-03-17T11:53:35.007Z,29.3
2017-03-17T11:54:36.338Z,29.2
2017-03-17T11:55:34.630Z,29.1
2017-03-17T11:56:34.651Z,29.2
2017-03-17T11:57:33.559Z,29.1
2017-03-17T11:58:33.130Z,29.1
2017-03-17T11:59:38.047Z,29.1
2017-03-17T12:00:37.839Z,29.1
2017-03-17T12:01:42.079Z,29.1
2017-03-17T12:02:37.578Z,29.1
2017-03-17T12:03:37.766Z,29.1
2017-03-17T12:04:37.894Z,29.1
2017-03-17T12:05:34.559Z,29.1
2017-03-17T12:06:34.656Z,29.1
2017-03-17T12:07:38.581Z,29.1
2017-03-17T12:08:41.315Z,29.1
2017-03-17T12:09:35.490Z,29.1
2017-03-17T12:10:39.842Z,29.1
2017-03-17T12:11:36.372Z,29.1
2017-03-17T12:12:41.176Z,29.1
2017-03-17T12:13:38.622Z,29.1
2017-03-17T12:14:37.705Z,29.1
2017-03-17T12:15:35.654Z,29.1
2017-03-17T12:16:36.539Z,29
2017-03-17T12:17:34.299Z,29
2017-03-17T12:18:36.167Z,29
2017-03-17T12:19:40.867Z,29
2017-03-17T12:20:35.827Z,29
2017-03-17T12:21:36.677Z,29
2017-03-17T12:22:37.186Z,29
2017-03-17T12:23:39.515Z,29
2017-03-17T12:24:35.274Z,29
2017-03-17T12:25:36.953Z,29
2017-03-17T12:26:37.687Z,29
2017-03-17T12:27:34.877Z,28.9
2017-03-17T12:28:34.963Z,28.9
2017-03-17T12:29:34.951Z,28.9
2017-03-17T12:30:36.420Z,28.9
2017-03-17T12:31:34.860Z,28.9
2017-03-17T12:32:35.811Z,28.9
2017-03-17T12:33:37.177Z,28.8
2017-03-17T12:34:35.901Z,28.8
2017-03-17T12:35:36.817Z,28.8
2017-03-17T12:36:35.371Z,28.8
2017-03-17T12:37:35.640Z,28.8
2017-03-17T12:38:36.467Z,28.8
2017-03-17T12:39:36.471Z,28.8
2017-03-17T12:40:36.163Z,28.8
2017-03-17T12:41:36.686Z,28.8
2017-03-17T12:42:35.212Z,28.8
2017-03-17T12:43:35.737Z,28.8
2017-03-17T12:44:39.551Z,28.8
2017-03-17T12:45:37.558Z,28.7
2017-03-17T12:46:39.271Z,28.7
2017-03-17T12:47:35.338Z,28.7
2017-03-17T12:48:40.223Z,28.6
2017-03-17T12:49:39.781Z,28.6
2017-03-17T12:50:39.511Z,28.6
2017-03-17T12:51:42.302Z,28.5
2017-03-17T12:52:39.805Z,28.5
2017-03-17T12:53:38.051Z,28.5
2017-03-17T12:54:39.515Z,28.5
2017-03-17T12:55:38.060Z,28.5
2017-03-17T12:56:39.513Z,28.5
2017-03-17T12:57:39.217Z,28.5
2017-03-17T12:58:35.816Z,28.5
2017-03-17T12:59:35.971Z,28.5
2017-03-17T13:00:37.388Z,28.5
2017-03-17T13:01:41.960Z,28.5
2017-03-17T13:02:42.233Z,28.5
2017-03-17T13:03:38.724Z,28.5
2017-03-17T13:04:39.190Z,28.5
2017-03-17T13:05:41.153Z,28.5
2017-03-17T13:06:42.294Z,28.5
2017-03-17T13:07:37.159Z,28.5
2017-03-17T13:08:42.796Z,28.5
2017-03-17T13:09:38.947Z,28.5
2017-03-17T13:10:43.255Z,28.5
2017-03-17T13:11:44.083Z,28.5
2017-03-17T13:12:39.089Z,28.5
2017-03-17T13:13:41.161Z,28.5
2017-03-17T13:14:40.423Z,28.5
2017-03-17T13:15:41.356Z,28.5
2017-03-17T13:16:39.407Z,28.5
2017-03-17T13:17:38.462Z,28.5
2017-03-17T13:18:37.874Z,28.5
2017-03-17T13:19:40.121Z,28.6
2017-03-17T13:20:41.310Z,28.5
2017-03-17T13:21:39.220Z,28.5
2017-03-17T13:22:41.486Z,28.5
2017-03-17T13:23:41.119Z,28.5
2017-03-17T13:24:40.869Z,28.5
2017-03-17T13:25:42.097Z,28.5
2017-03-17T13:26:43.471Z,28.4
2017-03-17T13:27:39.353Z,28.4
2017-03-17T13:28:40.739Z,28.4